createdAt,value
2018-07-28T00:00:08.502Z,96.20
2018-07-28T00:02:37.081Z,96.20
2018-07-28T00:05:06.604Z,96.40
2018-07-28T00:07:35.159Z,96.50
2018-07-28T00:10:07.970Z,96.60
2018-07-28T00:12:36.566Z,96.70
2018-07-28T00:15:08.305Z,97.00
2018-07-28T00:17:36.823Z,97.10
2018-07-28T00:20:06.674Z,97.20
2018-07-28T00:22:35.144Z,97.50
2018-07-28T00:25:03.761Z,97.50
2018-07-28T00:27:32.267Z,97.60
2018-07-28T00:30:00.838Z,98.20
2018-07-28T00:32:30.473Z,98.20
2018-07-28T00:34:59.017Z,98.10
2018-07-28T00:37:27.573Z,98.70
2018-07-28T00:39:56.094Z,98.60
2018-07-28T00:42:24.569Z,98.70
2018-07-28T00:44:53.136Z,98.80
2018-07-28T00:47:21.658Z,99.60
2018-07-28T00:49:50.345Z,99.60
2018-07-28T00:52:18.841Z,99.70
2018-07-28T00:54:47.493Z,99.60
2018-07-28T00:57:15.967Z,99.60
2018-07-28T00:59:44.543Z,99.90
2018-07-28T01:02:13.033Z,99.90
2018-07-28T01:04:41.644Z,99.90
2018-07-28T01:07:10.240Z,99.90
2018-07-28T01:09:38.851Z,99.90
2018-07-28T01:12:07.403Z,99.90
2018-07-28T01:14:35.915Z,99.90
2018-07-28T01:17:04.556Z,99.90
2018-07-28T01:19:33.141Z,99.90
2018-07-28T01:22:01.681Z,99.90
2018-07-28T01:24:30.172Z,99.90
2018-07-28T01:26:58.697Z,99.90
2018-07-28T01:29:27.183Z,99.90
2018-07-28T01:31:55.707Z,99.90
2018-07-28T01:34:24.214Z,99.90
2018-07-28T01:36:52.847Z,99.90
2018-07-28T01:41:49.609Z,99.90
2018-07-28T01:44:18.135Z,99.90
2018-07-28T01:46:46.627Z,99.90
2018-07-28T01:49:15.668Z,99.90
2018-07-28T01:51:44.180Z,99.90
2018-07-28T01:54:12.650Z,99.90
2018-07-28T01:56:41.172Z,99.90
2018-07-28T01:59:09.774Z,99.90
2018-07-28T02:01:38.263Z,99.90
2018-07-28T02:04:06.805Z,99.90
2018-07-28T02:06:35.372Z,99.90
2018-07-28T02:09:04.892Z,99.90
2018-07-28T02:11:33.439Z,99.90
2018-07-28T02:14:01.962Z,99.90
2018-07-28T02:16:30.511Z,99.90
2018-07-28T02:18:59.045Z,99.90
2018-07-28T02:21:27.678Z,99.90
2018-07-28T02:23:56.192Z,99.90
2018-07-28T02:26:24.737Z,99.90
2018-07-28T02:28:59.671Z,99.90
2018-07-28T02:31:28.241Z,99.90
2018-07-28T02:33:56.748Z,99.90
2018-07-28T02:36:25.380Z,99.90
2018-07-28T02:38:53.841Z,99.90
2018-07-28T02:41:22.455Z,99.90
2018-07-28T02:43:51.024Z,99.90
2018-07-28T02:46:19.545Z,99.90
2018-07-28T02:48:48.030Z,99.90
2018-07-28T02:51:16.482Z,99.90
2018-07-28T02:53:45.828Z,99.90
2018-07-28T02:56:15.293Z,99.90
2018-07-28T02:58:43.898Z,99.90
2018-07-28T03:01:12.440Z,99.90
2018-07-28T03:03:41.176Z,99.90
2018-07-28T03:06:09.674Z,99.90
2018-07-28T03:08:38.163Z,99.90
2018-07-28T03:11:06.778Z,99.90
2018-07-28T03:13:35.380Z,99.90
2018-07-28T03:16:12.816Z,99.90
2018-07-28T03:18:41.373Z,99.90
2018-07-28T03:21:09.970Z,99.90
2018-07-28T03:23:38.512Z,99.90
2018-07-28T03:26:07.113Z,99.90
2018-07-28T03:28:35.607Z,99.90
2018-07-28T03:31:04.276Z,99.90
2018-07-28T03:33:32.958Z,99.90
2018-07-28T03:36:01.457Z,99.90
2018-07-28T03:40:58.277Z,99.90
2018-07-28T03:43:26.825Z,99.90
2018-07-28T03:45:55.503Z,99.90
2018-07-28T03:48:24.097Z,99.90
2018-07-28T03:50:52.733Z,99.90
2018-07-28T03:53:21.253Z,99.90
2018-07-28T03:55:49.837Z,99.90
2018-07-28T03:58:18.321Z,99.90
2018-07-28T04:00:46.958Z,99.90
2018-07-28T04:03:15.407Z,99.90
2018-07-28T04:05:44.013Z,99.90
2018-07-28T04:08:12.559Z,99.90
2018-07-28T04:10:41.104Z,99.90
2018-07-28T04:13:09.644Z,99.90
2018-07-28T04:15:38.221Z,99.90
2018-07-28T04:18:06.770Z,99.90
2018-07-28T04:20:35.344Z,99.90
2018-07-28T04:23:03.916Z,99.90
2018-07-28T04:25:32.434Z,99.90
2018-07-28T04:28:01.033Z,99.90
2018-07-28T04:30:29.603Z,99.90
2018-07-28T04:32:58.265Z,99.90
2018-07-28T04:35:26.871Z,99.90
2018-07-28T04:37:55.394Z,99.90
2018-07-28T04:40:23.948Z,99.90
2018-07-28T04:42:52.531Z,99.90
2018-07-28T04:45:21.247Z,99.90
2018-07-28T04:47:49.839Z,99.90
2018-07-28T04:50:18.425Z,99.90
2018-07-28T04:52:46.900Z,99.90
2018-07-28T04:55:15.480Z,99.90
2018-07-28T04:57:43.989Z,99.90
2018-07-28T05:00:12.551Z,99.90
2018-07-28T05:02:41.087Z,99.90
2018-07-28T05:05:09.635Z,99.90
2018-07-28T05:07:38.242Z,99.90
2018-07-28T05:10:06.624Z,99.90
2018-07-28T05:12:35.286Z,99.90
2018-07-28T05:15:03.963Z,99.90
2018-07-28T05:17:32.488Z,99.90
2018-07-28T05:20:01.029Z,99.90
2018-07-28T05:22:29.532Z,99.90
2018-07-28T05:24:58.055Z,99.90
2018-07-28T05:27:26.621Z,99.90
2018-07-28T05:29:55.088Z,99.90
2018-07-28T05:32:24.643Z,99.90
2018-07-28T05:34:53.190Z,99.90
2018-07-28T05:37:21.718Z,99.90
2018-07-28T05:39:51.012Z,99.90
2018-07-28T05:42:19.572Z,99.90
2018-07-28T05:44:48.177Z,99.70
2018-07-28T05:47:16.749Z,99.60
2018-07-28T05:49:45.320Z,99.50
2018-07-28T05:52:13.890Z,99.60
2018-07-28T05:54:42.469Z,99.70
2018-07-28T05:57:11.198Z,99.80
2018-07-28T05:59:39.708Z,99.70
2018-07-28T06:02:08.458Z,99.60
2018-07-28T06:04:36.997Z,99.40
2018-07-28T06:07:06.410Z,99.40
2018-07-28T06:09:34.863Z,99.10
2018-07-28T06:12:03.537Z,99.10
2018-07-28T06:14:32.071Z,99.10
2018-07-28T06:17:00.727Z,98.80
2018-07-28T06:19:29.306Z,98.50
2018-07-28T06:24:25.999Z,97.70
2018-07-28T06:26:54.558Z,97.40
2018-07-28T06:29:23.065Z,97.20
2018-07-28T06:31:51.707Z,97.10
2018-07-28T06:34:20.231Z,96.50
2018-07-28T06:36:48.777Z,96.10
2018-07-28T06:39:17.303Z,95.50
2018-07-28T06:41:45.869Z,95.20
2018-07-28T06:44:14.430Z,94.70
2018-07-28T06:46:43.000Z,94.00
2018-07-28T06:49:11.540Z,93.70
2018-07-28T06:51:40.124Z,92.90
2018-07-28T06:54:08.713Z,92.50
2018-07-28T06:56:37.417Z,91.80
2018-07-28T06:59:06.020Z,91.40
2018-07-28T07:01:34.583Z,91.60
2018-07-28T07:04:03.165Z,91.20
2018-07-28T07:06:31.652Z,90.10
2018-07-28T07:09:00.191Z,87.60
2018-07-28T07:11:28.991Z,85.70
2018-07-28T07:13:57.532Z,83.60
2018-07-28T07:16:26.227Z,82.80
2018-07-28T07:18:54.847Z,79.20
2018-07-28T07:21:23.395Z,76.90
2018-07-28T07:23:51.936Z,75.40
2018-07-28T07:26:20.469Z,75.70
2018-07-28T07:28:49.025Z,76.00
2018-07-28T07:31:17.632Z,77.80
2018-07-28T07:33:46.175Z,78.30
2018-07-28T07:36:14.881Z,78.80
2018-07-28T07:38:43.344Z,78.70
2018-07-28T07:41:11.834Z,78.30
2018-07-28T07:43:40.390Z,77.80
2018-07-28T07:46:09.021Z,77.30
2018-07-28T07:48:38.016Z,76.20
2018-07-28T07:51:06.571Z,75.10
2018-07-28T07:53:35.132Z,73.20
2018-07-28T07:56:03.729Z,73.50
2018-07-28T07:58:32.270Z,73.70
2018-07-28T08:01:00.828Z,72.60
2018-07-28T08:03:29.399Z,72.00
2018-07-28T08:05:58.055Z,72.80
2018-07-28T08:08:26.575Z,70.00
2018-07-28T08:10:55.085Z,70.60
2018-07-28T08:13:23.615Z,70.30
2018-07-28T08:15:52.169Z,71.10
